sensor_id;sensor_type;location;lat;lon;timestamp;P1;durP1;ratioP1;P2;durP2;ratioP2
73150;SDS011;61354;50.758;6.106;2023-06-22T00:02:13;7.90;;;5.53;;
73150;SDS011;61354;50.758;6.106;2023-06-22T00:04:39;7.28;;;4.95;;
73150;SDS011;61354;50.758;6.106;2023-06-22T00:07:05;8.20;;;5.35;;
73150;SDS011;61354;50.758;6.106;2023-06-22T00:09:31;10.40;;;6.28;;
73150;SDS011;61354;50.758;6.106;2023-06-22T00:11:57;7.72;;;5.38;;
73150;SDS011;61354;50.758;6.106;2023-06-22T00:14:23;8.65;;;5.20;;
73150;SDS011;61354;50.758;6.106;2023-06-22T00:16:48;9.50;;;6.18;;
73150;SDS011;61354;50.758;6.106;2023-06-22T00:19:15;7.95;;;5.50;;
73150;SDS011;61354;50.758;6.106;2023-06-22T00:21:41;9.18;;;6.20;;
73150;SDS011;61354;50.758;6.106;2023-06-22T00:24:08;8.65;;;5.80;;
73150;SDS011;61354;50.758;6.106;2023-06-22T00:26:33;8.07;;;6.07;;
73150;SDS011;61354;50.758;6.106;2023-06-22T00:28:59;9.48;;;5.60;;
73150;SDS011;61354;50.758;6.106;2023-06-22T00:31:24;9.05;;;6.28;;
73150;SDS011;61354;50.758;6.106;2023-06-22T00:33:50;8.45;;;5.65;;
73150;SDS011;61354;50.758;6.106;2023-06-22T00:36:16;7.55;;;5.65;;
73150;SDS011;61354;50.758;6.106;2023-06-22T00:38:43;8.65;;;5.50;;
73150;SDS011;61354;50.758;6.106;2023-06-22T00:41:09;7.03;;;5.03;;
73150;SDS011;61354;50.758;6.106;2023-06-22T00:43:34;8.80;;;4.97;;
73150;SDS011;61354;50.758;6.106;2023-06-22T00:46:00;8.60;;;5.30;;
73150;SDS011;61354;50.758;6.106;2023-06-22T00:48:26;8.57;;;5.28;;
73150;SDS011;61354;50.758;6.106;2023-06-22T00:50:52;8.60;;;5.43;;
73150;SDS011;61354;50.758;6.106;2023-06-22T00:53:19;7.55;;;5.38;;
73150;SDS011;61354;50.758;6.106;2023-06-22T00:55:44;8.00;;;5.30;;
73150;SDS011;61354;50.758;6.106;2023-06-22T00:58:12;7.07;;;4.80;;
73150;SDS011;61354;50.758;6.106;2023-06-22T01:00:39;7.07;;;5.25;;
73150;SDS011;61354;50.758;6.106;2023-06-22T01:03:06;9.98;;;5.60;;
73150;SDS011;61354;50.758;6.106;2023-06-22T01:05:35;7.25;;;5.13;;
73150;SDS011;61354;50.758;6.106;2023-06-22T01:10:57;7.18;;;4.68;;
73150;SDS011;61354;50.758;6.106;2023-06-22T01:13:35;7.53;;;5.40;;
73150;SDS011;61354;50.758;6.106;2023-06-22T01:18:55;7.63;;;5.50;;
73150;SDS011;61354;50.758;6.106;2023-06-22T01:21:28;7.43;;;5.20;;
73150;SDS011;61354;50.758;6.106;2023-06-22T01:29:08;8.32;;;5.38;;
73150;SDS011;61354;50.758;6.106;2023-06-22T01:31:39;7.13;;;5.07;;
73150;SDS011;61354;50.758;6.106;2023-06-22T01:34:07;7.47;;;5.10;;
73150;SDS011;61354;50.758;6.106;2023-06-22T01:36:34;6.90;;;4.75;;
73150;SDS011;61354;50.758;6.106;2023-06-22T01:39:00;8.98;;;5.07;;
73150;SDS011;61354;50.758;6.106;2023-06-22T01:41:29;8.18;;;5.63;;
73150;SDS011;61354;50.758;6.106;2023-06-22T01:46:22;8.25;;;5.25;;
73150;SDS011;61354;50.758;6.106;2023-06-22T01:48:48;7.93;;;5.20;;
73150;SDS011;61354;50.758;6.106;2023-06-22T01:51:15;7.93;;;5.60;;
73150;SDS011;61354;50.758;6.106;2023-06-22T01:53:41;8.38;;;5.22;;
73150;SDS011;61354;50.758;6.106;2023-06-22T01:56:08;9.57;;;6.10;;
73150;SDS011;61354;50.758;6.106;2023-06-22T01:58:34;7.93;;;5.25;;
73150;SDS011;61354;50.758;6.106;2023-06-22T02:03:38;8.55;;;5.68;;
73150;SDS011;61354;50.758;6.106;2023-06-22T02:06:17;7.78;;;5.30;;
73150;SDS011;61354;50.758;6.106;2023-06-22T02:08:51;7.50;;;5.38;;
73150;SDS011;61354;50.758;6.106;2023-06-22T02:11:24;8.65;;;5.53;;
73150;SDS011;61354;50.758;6.106;2023-06-22T02:13:52;8.68;;;5.50;;
73150;SDS011;61354;50.758;6.106;2023-06-22T02:16:19;8.20;;;5.60;;
73150;SDS011;61354;50.758;6.106;2023-06-22T02:18:48;7.57;;;5.28;;
73150;SDS011;61354;50.758;6.106;2023-06-22T02:21:18;10.18;;;6.00;;
73150;SDS011;61354;50.758;6.106;2023-06-22T02:23:44;9.15;;;6.57;;
73150;SDS011;61354;50.758;6.106;2023-06-22T02:26:10;7.75;;;5.43;;
73150;SDS011;61354;50.758;6.106;2023-06-22T02:28:36;9.68;;;5.38;;
73150;SDS011;61354;50.758;6.106;2023-06-22T02:31:01;8.65;;;6.45;;
73150;SDS011;61354;50.758;6.106;2023-06-22T02:33:27;9.90;;;6.50;;
73150;SDS011;61354;50.758;6.106;2023-06-22T02:35:52;10.15;;;6.57;;
73150;SDS011;61354;50.758;6.106;2023-06-22T02:38:18;9.18;;;6.47;;
73150;SDS011;61354;50.758;6.106;2023-06-22T02:40:44;9.98;;;6.38;;
73150;SDS011;61354;50.758;6.106;2023-06-22T02:43:10;8.65;;;5.85;;
73150;SDS011;61354;50.758;6.106;2023-06-22T02:45:36;8.25;;;5.60;;
73150;SDS011;61354;50.758;6.106;2023-06-22T02:48:01;9.50;;;6.18;;
73150;SDS011;61354;50.758;6.106;2023-06-22T02:50:27;8.48;;;5.78;;
73150;SDS011;61354;50.758;6.106;2023-06-22T02:52:53;8.73;;;6.05;;
73150;SDS011;61354;50.758;6.106;2023-06-22T02:55:18;10.60;;;6.05;;
73150;SDS011;61354;50.758;6.106;2023-06-22T02:57:44;9.73;;;5.72;;
73150;SDS011;61354;50.758;6.106;2023-06-22T03:00:12;9.43;;;6.43;;
73150;SDS011;61354;50.758;6.106;2023-06-22T03:02:44;9.68;;;6.25;;
73150;SDS011;61354;50.758;6.106;2023-06-22T03:05:11;8.27;;;5.75;;
73150;SDS011;61354;50.758;6.106;2023-06-22T03:07:41;9.25;;;5.75;;
73150;SDS011;61354;50.758;6.106;2023-06-22T03:10:10;11.07;;;6.20;;
73150;SDS011;61354;50.758;6.106;2023-06-22T03:12:37;8.73;;;6.18;;
73150;SDS011;61354;50.758;6.106;2023-06-22T03:15:04;10.40;;;7.05;;
73150;SDS011;61354;50.758;6.106;2023-06-22T03:19:56;8.68;;;6.18;;
73150;SDS011;61354;50.758;6.106;2023-06-22T03:22:22;10.10;;;6.20;;
73150;SDS011;61354;50.758;6.106;2023-06-22T03:24:47;9.20;;;5.95;;
73150;SDS011;61354;50.758;6.106;2023-06-22T03:27:13;8.30;;;6.20;;
73150;SDS011;61354;50.758;6.106;2023-06-22T03:29:38;9.48;;;6.68;;
73150;SDS011;61354;50.758;6.106;2023-06-22T03:32:04;10.55;;;6.63;;
73150;SDS011;61354;50.758;6.106;2023-06-22T03:34:31;9.68;;;6.20;;
73150;SDS011;61354;50.758;6.106;2023-06-22T03:36:58;10.02;;;5.93;;
73150;SDS011;61354;50.758;6.106;2023-06-22T03:39:24;10.07;;;6.38;;
73150;SDS011;61354;50.758;6.106;2023-06-22T03:41:50;9.60;;;5.63;;
73150;SDS011;61354;50.758;6.106;2023-06-22T03:44:15;8.68;;;5.70;;
73150;SDS011;61354;50.758;6.106;2023-06-22T03:46:41;9.13;;;5.78;;
73150;SDS011;61354;50.758;6.106;2023-06-22T03:49:06;10.82;;;5.82;;
73150;SDS011;61354;50.758;6.106;2023-06-22T03:51:32;8.93;;;6.35;;
73150;SDS011;61354;50.758;6.106;2023-06-22T03:53:58;8.73;;;5.82;;
73150;SDS011;61354;50.758;6.106;2023-06-22T03:56:23;7.47;;;5.60;;
73150;SDS011;61354;50.758;6.106;2023-06-22T03:58:49;9.07;;;5.38;;
73150;SDS011;61354;50.758;6.106;2023-06-22T04:01:14;9.88;;;5.72;;
73150;SDS011;61354;50.758;6.106;2023-06-22T04:03:42;9.57;;;5.20;;
73150;SDS011;61354;50.758;6.106;2023-06-22T04:06:08;8.98;;;5.53;;
73150;SDS011;61354;50.758;6.106;2023-06-22T04:08:33;7.70;;;5.05;;
73150;SDS011;61354;50.758;6.106;2023-06-22T04:10:59;8.68;;;5.43;;
73150;SDS011;61354;50.758;6.106;2023-06-22T04:13:25;8.77;;;5.95;;
73150;SDS011;61354;50.758;6.106;2023-06-22T04:15:50;8.13;;;5.28;;
73150;SDS011;61354;50.758;6.106;2023-06-22T04:18:16;8.85;;;6.18;;
73150;SDS011;61354;50.758;6.106;2023-06-22T04:20:41;9.05;;;5.18;;
73150;SDS011;61354;50.758;6.106;2023-06-22T04:23:07;8.50;;;5.28;;
73150;SDS011;61354;50.758;6.106;2023-06-22T04:25:33;9.25;;;5.85;;
73150;SDS011;61354;50.758;6.106;2023-06-22T04:27:58;8.88;;;5.95;;
73150;SDS011;61354;50.758;6.106;2023-06-22T04:30:24;8.98;;;5.03;;
73150;SDS011;61354;50.758;6.106;2023-06-22T04:32:50;11.30;;;5.60;;
73150;SDS011;61354;50.758;6.106;2023-06-22T04:35:21;8.38;;;5.50;;
73150;SDS011;61354;50.758;6.106;2023-06-22T04:37:50;7.93;;;5.55;;
73150;SDS011;61354;50.758;6.106;2023-06-22T04:40:20;7.60;;;5.43;;
73150;SDS011;61354;50.758;6.106;2023-06-22T04:42:47;8.60;;;5.15;;
73150;SDS011;61354;50.758;6.106;2023-06-22T04:45:19;9.98;;;5.32;;
73150;SDS011;61354;50.758;6.106;2023-06-22T04:47:45;9.00;;;4.88;;
73150;SDS011;61354;50.758;6.106;2023-06-22T04:50:11;8.48;;;5.10;;
73150;SDS011;61354;50.758;6.106;2023-06-22T04:52:37;7.88;;;5.40;;
73150;SDS011;61354;50.758;6.106;2023-06-22T04:55:03;7.22;;;5.05;;
73150;SDS011;61354;50.758;6.106;2023-06-22T04:57:29;8.85;;;5.47;;
73150;SDS011;61354;50.758;6.106;2023-06-22T04:59:58;12.10;;;5.80;;
73150;SDS011;61354;50.758;6.106;2023-06-22T05:02:36;11.18;;;5.90;;
73150;SDS011;61354;50.758;6.106;2023-06-22T05:05:02;8.00;;;5.68;;
73150;SDS011;61354;50.758;6.106;2023-06-22T05:07:34;9.85;;;5.53;;
73150;SDS011;61354;50.758;6.106;2023-06-22T05:10:03;9.82;;;5.60;;
73150;SDS011;61354;50.758;6.106;2023-06-22T05:12:30;13.80;;;5.95;;
73150;SDS011;61354;50.758;6.106;2023-06-22T05:14:56;12.05;;;6.03;;
73150;SDS011;61354;50.758;6.106;2023-06-22T05:17:22;9.73;;;5.65;;
73150;SDS011;61354;50.758;6.106;2023-06-22T05:19:47;10.18;;;4.95;;
73150;SDS011;61354;50.758;6.106;2023-06-22T05:22:16;9.18;;;5.32;;
73150;SDS011;61354;50.758;6.106;2023-06-22T05:24:42;8.32;;;5.20;;
73150;SDS011;61354;50.758;6.106;2023-06-22T05:27:08;9.25;;;5.55;;
73150;SDS011;61354;50.758;6.106;2023-06-22T05:29:35;7.90;;;5.45;;
73150;SDS011;61354;50.758;6.106;2023-06-22T05:32:04;9.52;;;6.40;;
73150;SDS011;61354;50.758;6.106;2023-06-22T05:34:30;10.55;;;5.78;;
73150;SDS011;61354;50.758;6.106;2023-06-22T05:36:55;10.65;;;5.43;;
73150;SDS011;61354;50.758;6.106;2023-06-22T05:39:21;9.40;;;6.30;;
73150;SDS011;61354;50.758;6.106;2023-06-22T05:41:46;11.70;;;6.38;;
73150;SDS011;61354;50.758;6.106;2023-06-22T05:44:12;9.77;;;5.78;;
73150;SDS011;61354;50.758;6.106;2023-06-22T05:46:41;9.73;;;6.05;;
73150;SDS011;61354;50.758;6.106;2023-06-22T05:49:14;10.35;;;5.50;;
73150;SDS011;61354;50.758;6.106;2023-06-22T05:51:41;10.85;;;6.00;;
73150;SDS011;61354;50.758;6.106;2023-06-22T05:54:07;10.65;;;6.65;;
73150;SDS011;61354;50.758;6.106;2023-06-22T05:56:34;8.98;;;5.97;;
73150;SDS011;61354;50.758;6.106;2023-06-22T05:58:59;11.32;;;6.55;;
73150;SDS011;61354;50.758;6.106;2023-06-22T06:01:25;10.32;;;5.85;;
73150;SDS011;61354;50.758;6.106;2023-06-22T06:03:51;9.93;;;6.80;;
73150;SDS011;61354;50.758;6.106;2023-06-22T06:06:18;10.10;;;7.10;;
73150;SDS011;61354;50.758;6.106;2023-06-22T06:08:46;10.32;;;6.70;;
73150;SDS011;61354;50.758;6.106;2023-06-22T06:11:12;10.82;;;6.97;;
73150;SDS011;61354;50.758;6.106;2023-06-22T06:13:37;13.10;;;7.45;;
73150;SDS011;61354;50.758;6.106;2023-06-22T06:16:03;10.95;;;7.05;;
73150;SDS011;61354;50.758;6.106;2023-06-22T06:18:29;12.07;;;7.20;;
73150;SDS011;61354;50.758;6.106;2023-06-22T06:20:54;11.05;;;6.00;;
73150;SDS011;61354;50.758;6.106;2023-06-22T06:23:20;10.77;;;6.60;;
73150;SDS011;61354;50.758;6.106;2023-06-22T06:25:45;11.02;;;6.78;;
73150;SDS011;61354;50.758;6.106;2023-06-22T06:28:11;10.85;;;6.78;;
73150;SDS011;61354;50.758;6.106;2023-06-22T06:30:36;10.45;;;6.10;;
73150;SDS011;61354;50.758;6.106;2023-06-22T06:33:02;12.88;;;6.78;;
73150;SDS011;61354;50.758;6.106;2023-06-22T06:35:29;10.80;;;6.65;;
73150;SDS011;61354;50.758;6.106;2023-06-22T06:37:55;12.07;;;6.55;;
73150;SDS011;61354;50.758;6.106;2023-06-22T06:40:21;11.82;;;6.53;;
73150;SDS011;61354;50.758;6.106;2023-06-22T06:42:47;14.35;;;7.60;;
73150;SDS011;61354;50.758;6.106;2023-06-22T06:45:17;9.98;;;6.47;;
73150;SDS011;61354;50.758;6.106;2023-06-22T06:47:44;16.48;;;7.65;;
73150;SDS011;61354;50.758;6.106;2023-06-22T06:50:11;11.15;;;6.82;;
73150;SDS011;61354;50.758;6.106;2023-06-22T06:52:37;14.20;;;6.68;;
73150;SDS011;61354;50.758;6.106;2023-06-22T06:55:03;10.48;;;6.30;;
73150;SDS011;61354;50.758;6.106;2023-06-22T06:57:37;11.48;;;6.50;;
73150;SDS011;61354;50.758;6.106;2023-06-22T07:00:04;10.95;;;7.45;;
73150;SDS011;61354;50.758;6.106;2023-06-22T07:02:42;13.45;;;7.53;;
73150;SDS011;61354;50.758;6.106;2023-06-22T07:05:09;12.57;;;6.60;;
73150;SDS011;61354;50.758;6.106;2023-06-22T07:07:35;10.00;;;6.45;;
73150;SDS011;61354;50.758;6.106;2023-06-22T07:10:03;11.23;;;7.30;;
73150;SDS011;61354;50.758;6.106;2023-06-22T07:12:30;11.60;;;7.07;;
73150;SDS011;61354;50.758;6.106;2023-06-22T07:15:05;10.27;;;7.15;;
73150;SDS011;61354;50.758;6.106;2023-06-22T07:17:35;9.90;;;7.15;;
73150;SDS011;61354;50.758;6.106;2023-06-22T07:20:01;10.63;;;6.93;;
73150;SDS011;61354;50.758;6.106;2023-06-22T07:22:32;12.20;;;7.10;;
73150;SDS011;61354;50.758;6.106;2023-06-22T07:24:58;14.05;;;7.85;;
73150;SDS011;61354;50.758;6.106;2023-06-22T07:27:24;11.43;;;7.20;;
73150;SDS011;61354;50.758;6.106;2023-06-22T07:29:50;11.50;;;7.45;;
73150;SDS011;61354;50.758;6.106;2023-06-22T07:32:15;11.80;;;7.75;;
73150;SDS011;61354;50.758;6.106;2023-06-22T07:34:41;12.90;;;7.45;;
73150;SDS011;61354;50.758;6.106;2023-06-22T07:37:06;11.75;;;7.03;;
73150;SDS011;61354;50.758;6.106;2023-06-22T07:39:32;12.80;;;7.22;;
73150;SDS011;61354;50.758;6.106;2023-06-22T07:41:58;11.18;;;7.38;;
73150;SDS011;61354;50.758;6.106;2023-06-22T07:44:23;12.68;;;7.85;;
73150;SDS011;61354;50.758;6.106;2023-06-22T07:46:49;14.43;;;7.65;;
73150;SDS011;61354;50.758;6.106;2023-06-22T07:49:15;13.80;;;8.27;;
73150;SDS011;61354;50.758;6.106;2023-06-22T07:51:41;10.60;;;7.28;;
73150;SDS011;61354;50.758;6.106;2023-06-22T07:54:07;11.73;;;7.18;;
73150;SDS011;61354;50.758;6.106;2023-06-22T07:56:32;10.60;;;7.13;;
73150;SDS011;61354;50.758;6.106;2023-06-22T07:58:58;13.80;;;7.72;;
73150;SDS011;61354;50.758;6.106;2023-06-22T08:03:51;10.98;;;7.28;;
73150;SDS011;61354;50.758;6.106;2023-06-22T08:06:17;10.80;;;6.90;;
73150;SDS011;61354;50.758;6.106;2023-06-22T08:08:42;11.55;;;7.45;;
73150;SDS011;61354;50.758;6.106;2023-06-22T08:11:08;10.90;;;7.65;;
73150;SDS011;61354;50.758;6.106;2023-06-22T08:13:34;9.98;;;7.53;;
73150;SDS011;61354;50.758;6.106;2023-06-22T08:16:00;10.63;;;7.75;;
73150;SDS011;61354;50.758;6.106;2023-06-22T08:18:26;12.00;;;7.95;;
73150;SDS011;61354;50.758;6.106;2023-06-22T08:20:51;13.15;;;8.82;;
73150;SDS011;61354;50.758;6.106;2023-06-22T08:23:17;11.25;;;8.13;;
73150;SDS011;61354;50.758;6.106;2023-06-22T08:25:43;12.85;;;7.72;;
73150;SDS011;61354;50.758;6.106;2023-06-22T08:28:09;10.77;;;7.63;;
73150;SDS011;61354;50.758;6.106;2023-06-22T08:30:34;10.57;;;7.20;;
73150;SDS011;61354;50.758;6.106;2023-06-22T08:33:00;16.10;;;8.23;;
73150;SDS011;61354;50.758;6.106;2023-06-22T08:35:25;13.52;;;9.30;;
73150;SDS011;61354;50.758;6.106;2023-06-22T08:37:51;10.98;;;8.10;;
73150;SDS011;61354;50.758;6.106;2023-06-22T08:40:19;11.65;;;7.97;;
73150;SDS011;61354;50.758;6.106;2023-06-22T08:42:46;15.10;;;9.27;;
73150;SDS011;61354;50.758;6.106;2023-06-22T08:45:12;12.00;;;8.40;;
73150;SDS011;61354;50.758;6.106;2023-06-22T08:47:39;12.60;;;8.13;;
73150;SDS011;61354;50.758;6.106;2023-06-22T08:50:06;12.00;;;8.70;;
73150;SDS011;61354;50.758;6.106;2023-06-22T08:52:33;15.25;;;8.88;;
73150;SDS011;61354;50.758;6.106;2023-06-22T08:55:00;12.13;;;7.97;;
73150;SDS011;61354;50.758;6.106;2023-06-22T08:57:26;16.48;;;7.80;;
73150;SDS011;61354;50.758;6.106;2023-06-22T08:59:53;14.10;;;8.52;;
73150;SDS011;61354;50.758;6.106;2023-06-22T09:02:18;12.15;;;8.32;;
73150;SDS011;61354;50.758;6.106;2023-06-22T09:04:47;14.00;;;8.00;;
73150;SDS011;61354;50.758;6.106;2023-06-22T09:07:14;12.30;;;8.32;;
73150;SDS011;61354;50.758;6.106;2023-06-22T09:09:39;13.40;;;8.25;;
73150;SDS011;61354;50.758;6.106;2023-06-22T09:12:05;15.10;;;7.97;;
73150;SDS011;61354;50.758;6.106;2023-06-22T09:14:31;16.30;;;9.07;;
73150;SDS011;61354;50.758;6.106;2023-06-22T09:16:56;11.85;;;8.48;;
73150;SDS011;61354;50.758;6.106;2023-06-22T09:19:22;12.60;;;8.40;;
73150;SDS011;61354;50.758;6.106;2023-06-22T09:21:48;13.32;;;8.48;;
73150;SDS011;61354;50.758;6.106;2023-06-22T09:24:13;11.63;;;8.15;;
73150;SDS011;61354;50.758;6.106;2023-06-22T09:26:39;11.50;;;7.45;;
73150;SDS011;61354;50.758;6.106;2023-06-22T09:29:05;11.98;;;8.50;;
73150;SDS011;61354;50.758;6.106;2023-06-22T09:31:31;10.85;;;7.70;;
73150;SDS011;61354;50.758;6.106;2023-06-22T09:33:57;10.63;;;7.50;;
73150;SDS011;61354;50.758;6.106;2023-06-22T09:36:22;13.75;;;9.70;;
73150;SDS011;61354;50.758;6.106;2023-06-22T09:38:48;12.52;;;8.23;;
73150;SDS011;61354;50.758;6.106;2023-06-22T09:41:20;11.50;;;7.88;;
73150;SDS011;61354;50.758;6.106;2023-06-22T09:43:46;12.93;;;7.72;;
73150;SDS011;61354;50.758;6.106;2023-06-22T09:46:14;10.57;;;7.78;;
73150;SDS011;61354;50.758;6.106;2023-06-22T09:48:40;11.30;;;7.22;;
73150;SDS011;61354;50.758;6.106;2023-06-22T09:51:06;11.48;;;7.75;;
73150;SDS011;61354;50.758;6.106;2023-06-22T09:53:31;11.60;;;7.80;;
73150;SDS011;61354;50.758;6.106;2023-06-22T09:55:57;14.60;;;8.00;;
73150;SDS011;61354;50.758;6.106;2023-06-22T09:58:23;12.13;;;8.23;;
73150;SDS011;61354;50.758;6.106;2023-06-22T10:00:48;14.00;;;9.40;;
73150;SDS011;61354;50.758;6.106;2023-06-22T10:03:14;14.07;;;9.43;;
73150;SDS011;61354;50.758;6.106;2023-06-22T10:05:39;13.55;;;8.68;;
73150;SDS011;61354;50.758;6.106;2023-06-22T10:08:05;13.23;;;9.80;;
73150;SDS011;61354;50.758;6.106;2023-06-22T10:10:33;14.45;;;10.75;;
73150;SDS011;61354;50.758;6.106;2023-06-22T10:13:02;14.80;;;10.38;;
73150;SDS011;61354;50.758;6.106;2023-06-22T10:15:34;16.67;;;9.65;;
73150;SDS011;61354;50.758;6.106;2023-06-22T10:18:00;13.30;;;9.88;;
73150;SDS011;61354;50.758;6.106;2023-06-22T10:20:25;14.15;;;10.90;;
73150;SDS011;61354;50.758;6.106;2023-06-22T10:22:51;14.25;;;10.70;;
73150;SDS011;61354;50.758;6.106;2023-06-22T10:25:17;15.75;;;11.68;;
73150;SDS011;61354;50.758;6.106;2023-06-22T10:27:42;13.95;;;10.82;;
73150;SDS011;61354;50.758;6.106;2023-06-22T10:30:09;16.98;;;11.85;;
73150;SDS011;61354;50.758;6.106;2023-06-22T10:32:38;16.08;;;11.95;;
73150;SDS011;61354;50.758;6.106;2023-06-22T10:35:04;17.20;;;12.10;;
73150;SDS011;61354;50.758;6.106;2023-06-22T10:37:30;18.60;;;12.15;;
73150;SDS011;61354;50.758;6.106;2023-06-22T10:39:56;16.65;;;12.07;;
73150;SDS011;61354;50.758;6.106;2023-06-22T10:42:22;17.80;;;13.02;;
73150;SDS011;61354;50.758;6.106;2023-06-22T10:44:48;16.95;;;12.88;;
73150;SDS011;61354;50.758;6.106;2023-06-22T10:47:13;14.85;;;12.00;;
73150;SDS011;61354;50.758;6.106;2023-06-22T10:49:39;19.10;;;12.50;;
73150;SDS011;61354;50.758;6.106;2023-06-22T10:52:08;19.17;;;13.57;;
73150;SDS011;61354;50.758;6.106;2023-06-22T10:54:34;18.73;;;13.45;;
73150;SDS011;61354;50.758;6.106;2023-06-22T10:57:01;21.00;;;14.57;;
73150;SDS011;61354;50.758;6.106;2023-06-22T10:59:27;20.02;;;15.40;;
73150;SDS011;61354;50.758;6.106;2023-06-22T11:01:54;22.13;;;14.95;;
73150;SDS011;61354;50.758;6.106;2023-06-22T11:04:20;22.33;;;15.60;;
73150;SDS011;61354;50.758;6.106;2023-06-22T11:06:47;18.08;;;13.73;;
73150;SDS011;61354;50.758;6.106;2023-06-22T11:09:13;19.02;;;15.20;;
73150;SDS011;61354;50.758;6.106;2023-06-22T11:11:43;20.02;;;15.70;;
73150;SDS011;61354;50.758;6.106;2023-06-22T11:14:10;23.58;;;16.35;;
73150;SDS011;61354;50.758;6.106;2023-06-22T11:16:36;22.23;;;16.48;;
73150;SDS011;61354;50.758;6.106;2023-06-22T11:19:01;21.20;;;15.48;;
73150;SDS011;61354;50.758;6.106;2023-06-22T11:21:28;21.83;;;15.88;;
73150;SDS011;61354;50.758;6.106;2023-06-22T11:23:54;20.38;;;15.30;;
73150;SDS011;61354;50.758;6.106;2023-06-22T11:26:19;18.65;;;14.70;;
73150;SDS011;61354;50.758;6.106;2023-06-22T11:28:46;19.10;;;15.82;;
73150;SDS011;61354;50.758;6.106;2023-06-22T11:31:12;19.42;;;14.07;;
73150;SDS011;61354;50.758;6.106;2023-06-22T11:33:40;17.05;;;12.68;;
73150;SDS011;61354;50.758;6.106;2023-06-22T11:36:06;18.60;;;13.40;;
73150;SDS011;61354;50.758;6.106;2023-06-22T11:38:32;16.23;;;12.05;;
73150;SDS011;61354;50.758;6.106;2023-06-22T11:40:58;14.45;;;11.30;;
73150;SDS011;61354;50.758;6.106;2023-06-22T11:43:25;15.45;;;11.63;;
73150;SDS011;61354;50.758;6.106;2023-06-22T11:45:51;16.17;;;13.10;;
73150;SDS011;61354;50.758;6.106;2023-06-22T11:48:16;17.45;;;12.43;;
73150;SDS011;61354;50.758;6.106;2023-06-22T11:50:42;15.25;;;10.95;;
73150;SDS011;61354;50.758;6.106;2023-06-22T11:53:08;14.18;;;11.10;;
73150;SDS011;61354;50.758;6.106;2023-06-22T11:55:34;15.93;;;12.13;;
73150;SDS011;61354;50.758;6.106;2023-06-22T11:57:59;14.63;;;11.35;;
73150;SDS011;61354;50.758;6.106;2023-06-22T12:00:28;16.75;;;12.13;;
73150;SDS011;61354;50.758;6.106;2023-06-22T12:02:55;16.58;;;12.13;;
73150;SDS011;61354;50.758;6.106;2023-06-22T12:05:21;16.63;;;13.43;;
73150;SDS011;61354;50.758;6.106;2023-06-22T12:07:47;15.23;;;11.80;;
73150;SDS011;61354;50.758;6.106;2023-06-22T12:10:14;16.65;;;12.20;;
73150;SDS011;61354;50.758;6.106;2023-06-22T12:12:40;17.45;;;12.65;;
73150;SDS011;61354;50.758;6.106;2023-06-22T12:15:06;16.42;;;11.27;;
73150;SDS011;61354;50.758;6.106;2023-06-22T12:17:33;12.95;;;10.82;;
73150;SDS011;61354;50.758;6.106;2023-06-22T12:19:59;13.15;;;9.93;;
73150;SDS011;61354;50.758;6.106;2023-06-22T12:22:25;17.13;;;12.43;;
73150;SDS011;61354;50.758;6.106;2023-06-22T12:24:50;15.90;;;11.95;;
73150;SDS011;61354;50.758;6.106;2023-06-22T12:27:19;16.75;;;13.25;;
73150;SDS011;61354;50.758;6.106;2023-06-22T12:29:47;17.35;;;12.40;;
73150;SDS011;61354;50.758;6.106;2023-06-22T12:32:13;16.83;;;12.45;;
73150;SDS011;61354;50.758;6.106;2023-06-22T12:34:41;16.13;;;12.18;;
73150;SDS011;61354;50.758;6.106;2023-06-22T12:37:07;19.05;;;12.85;;
73150;SDS011;61354;50.758;6.106;2023-06-22T12:39:33;15.57;;;11.27;;
73150;SDS011;61354;50.758;6.106;2023-06-22T12:41:59;15.30;;;11.00;;
73150;SDS011;61354;50.758;6.106;2023-06-22T12:44:25;15.52;;;11.45;;
73150;SDS011;61354;50.758;6.106;2023-06-22T12:46:51;18.52;;;11.73;;
73150;SDS011;61354;50.758;6.106;2023-06-22T12:49:16;14.90;;;11.13;;
73150;SDS011;61354;50.758;6.106;2023-06-22T12:51:42;14.27;;;11.15;;
73150;SDS011;61354;50.758;6.106;2023-06-22T12:54:09;14.95;;;11.38;;
73150;SDS011;61354;50.758;6.106;2023-06-22T12:56:35;17.08;;;12.27;;
73150;SDS011;61354;50.758;6.106;2023-06-22T12:59:01;15.48;;;10.95;;
73150;SDS011;61354;50.758;6.106;2023-06-22T13:01:30;15.95;;;12.13;;
73150;SDS011;61354;50.758;6.106;2023-06-22T13:03:57;14.73;;;10.95;;
73150;SDS011;61354;50.758;6.106;2023-06-22T13:06:24;17.25;;;12.68;;
73150;SDS011;61354;50.758;6.106;2023-06-22T13:08:49;14.45;;;10.80;;
73150;SDS011;61354;50.758;6.106;2023-06-22T13:11:15;15.98;;;11.38;;
73150;SDS011;61354;50.758;6.106;2023-06-22T13:13:40;14.85;;;10.85;;
73150;SDS011;61354;50.758;6.106;2023-06-22T13:16:06;14.77;;;11.00;;
73150;SDS011;61354;50.758;6.106;2023-06-22T13:18:32;14.07;;;10.35;;
73150;SDS011;61354;50.758;6.106;2023-06-22T13:21:01;13.82;;;10.23;;
73150;SDS011;61354;50.758;6.106;2023-06-22T13:23:27;16.17;;;11.15;;
73150;SDS011;61354;50.758;6.106;2023-06-22T13:25:52;13.90;;;10.80;;
73150;SDS011;61354;50.758;6.106;2023-06-22T13:28:18;14.07;;;10.40;;
73150;SDS011;61354;50.758;6.106;2023-06-22T13:30:43;15.70;;;11.52;;
73150;SDS011;61354;50.758;6.106;2023-06-22T13:33:12;15.23;;;11.77;;
73150;SDS011;61354;50.758;6.106;2023-06-22T13:35:39;18.73;;;12.45;;
73150;SDS011;61354;50.758;6.106;2023-06-22T13:38:04;15.80;;;11.73;;
73150;SDS011;61354;50.758;6.106;2023-06-22T13:40:30;15.82;;;12.32;;
73150;SDS011;61354;50.758;6.106;2023-06-22T13:42:56;15.63;;;11.80;;
73150;SDS011;61354;50.758;6.106;2023-06-22T13:45:22;15.70;;;11.45;;
73150;SDS011;61354;50.758;6.106;2023-06-22T13:47:47;16.75;;;13.02;;
73150;SDS011;61354;50.758;6.106;2023-06-22T13:50:13;16.55;;;12.75;;
73150;SDS011;61354;50.758;6.106;2023-06-22T13:52:39;15.30;;;12.35;;
73150;SDS011;61354;50.758;6.106;2023-06-22T13:55:05;16.67;;;13.07;;
73150;SDS011;61354;50.758;6.106;2023-06-22T13:57:32;18.23;;;13.23;;
73150;SDS011;61354;50.758;6.106;2023-06-22T13:59:58;20.83;;;14.88;;
73150;SDS011;61354;50.758;6.106;2023-06-22T14:02:25;19.75;;;15.95;;
73150;SDS011;61354;50.758;6.106;2023-06-22T14:04:53;20.70;;;14.70;;
73150;SDS011;61354;50.758;6.106;2023-06-22T14:07:19;20.45;;;15.10;;
73150;SDS011;61354;50.758;6.106;2023-06-22T14:09:46;19.63;;;15.02;;
73150;SDS011;61354;50.758;6.106;2023-06-22T14:12:11;22.00;;;14.88;;
73150;SDS011;61354;50.758;6.106;2023-06-22T14:14:37;20.63;;;15.02;;
73150;SDS011;61354;50.758;6.106;2023-06-22T14:17:03;20.48;;;14.80;;
73150;SDS011;61354;50.758;6.106;2023-06-22T14:19:29;23.70;;;16.75;;
73150;SDS011;61354;50.758;6.106;2023-06-22T14:21:55;21.80;;;16.63;;
73150;SDS011;61354;50.758;6.106;2023-06-22T14:24:22;24.88;;;16.85;;
73150;SDS011;61354;50.758;6.106;2023-06-22T14:26:48;22.35;;;16.70;;
73150;SDS011;61354;50.758;6.106;2023-06-22T14:29:14;23.10;;;16.77;;
73150;SDS011;61354;50.758;6.106;2023-06-22T14:31:39;26.63;;;16.67;;
73150;SDS011;61354;50.758;6.106;2023-06-22T14:34:05;21.58;;;16.48;;
73150;SDS011;61354;50.758;6.106;2023-06-22T14:36:31;27.80;;;17.83;;
73150;SDS011;61354;50.758;6.106;2023-06-22T14:38:57;22.55;;;16.58;;
73150;SDS011;61354;50.758;6.106;2023-06-22T14:41:22;24.00;;;16.17;;
73150;SDS011;61354;50.758;6.106;2023-06-22T14:43:49;24.48;;;16.75;;
73150;SDS011;61354;50.758;6.106;2023-06-22T14:46:15;23.08;;;17.48;;
73150;SDS011;61354;50.758;6.106;2023-06-22T14:48:42;21.60;;;16.05;;
73150;SDS011;61354;50.758;6.106;2023-06-22T14:51:08;25.25;;;17.83;;
73150;SDS011;61354;50.758;6.106;2023-06-22T14:53:35;25.85;;;18.73;;